createdAt,value
2022-08-19T00:01:57.038Z,15.87
2022-08-19T00:04:31.838Z,17.33
2022-08-19T00:06:59.358Z,17.17
2022-08-19T00:09:27.286Z,13.83
2022-08-19T00:11:56.397Z,14.40
2022-08-19T00:14:25.317Z,15.13
2022-08-19T00:16:55.219Z,14.20
2022-08-19T00:19:23.989Z,13.93
2022-08-19T00:21:52.285Z,14.47
2022-08-19T00:24:19.852Z,13.50
2022-08-19T00:26:47.175Z,16.00
2022-08-19T00:29:18.171Z,13.47
2022-08-19T00:31:46.868Z,16.43
2022-08-19T00:34:15.515Z,16.80
2022-08-19T00:36:43.692Z,20.30
2022-08-19T00:39:12.324Z,16.97
2022-08-19T00:41:41.404Z,17.37
2022-08-19T00:44:15.983Z,19.10
2022-08-19T00:46:55.565Z,16.47
2022-08-19T00:49:41.759Z,17.87
2022-08-19T00:52:24.084Z,21.23
2022-08-19T00:54:53.877Z,18.57
2022-08-19T00:57:51.906Z,17.50
2022-08-19T01:00:20.530Z,14.10
2022-08-19T01:02:47.487Z,23.27
2022-08-19T01:05:19.535Z,21.93
2022-08-19T01:07:46.679Z,19.13
2022-08-19T01:10:21.319Z,15.90
2022-08-19T01:12:49.265Z,16.13
2022-08-19T01:15:24.093Z,13.77
2022-08-19T01:17:51.968Z,15.13
2022-08-19T01:20:23.207Z,17.10
2022-08-19T01:22:58.270Z,14.53
2022-08-19T01:25:36.720Z,15.30
2022-08-19T01:28:10.596Z,16.63
2022-08-19T01:30:38.391Z,19.20
2022-08-19T01:33:06.536Z,13.57
2022-08-19T01:35:34.004Z,15.00
2022-08-19T01:38:08.693Z,15.10
2022-08-19T01:40:41.304Z,19.30
2022-08-19T01:43:08.747Z,20.90
2022-08-19T01:45:36.391Z,13.20
2022-08-19T01:48:05.255Z,20.63
2022-08-19T01:50:34.070Z,20.13
2022-08-19T01:53:06.822Z,21.70
2022-08-19T01:55:41.228Z,22.67
2022-08-19T01:58:16.053Z,20.60
2022-08-19T02:00:43.852Z,18.10
2022-08-19T02:03:12.149Z,21.27
2022-08-19T02:05:39.755Z,18.63
2022-08-19T02:08:07.009Z,26.07
2022-08-19T02:10:34.200Z,22.93
2022-08-19T02:13:01.244Z,24.60
2022-08-19T02:15:28.206Z,26.63
2022-08-19T02:17:55.160Z,18.90
2022-08-19T02:20:23.454Z,25.60
2022-08-19T02:22:50.353Z,19.70
2022-08-19T02:25:17.485Z,20.03
2022-08-19T02:27:44.676Z,18.93
2022-08-19T02:30:18.407Z,22.13
2022-08-19T02:32:45.670Z,21.77
2022-08-19T02:35:14.777Z,17.43
2022-08-19T02:38:02.131Z,20.83
2022-08-19T02:40:30.874Z,19.47
2022-08-19T02:42:58.220Z,19.63
2022-08-19T02:45:25.122Z,18.30
2022-08-19T02:47:52.136Z,19.70
2022-08-19T02:50:19.553Z,22.50
2022-08-19T02:52:46.500Z,21.80
2022-08-19T02:55:13.405Z,18.60
2022-08-19T02:57:40.310Z,19.70
2022-08-19T03:00:10.248Z,19.23
2022-08-19T03:02:37.152Z,21.33
2022-08-19T03:05:05.429Z,18.60
2022-08-19T03:07:32.378Z,15.90
2022-08-19T03:09:59.855Z,16.20
2022-08-19T03:12:26.762Z,19.80
2022-08-19T03:14:53.791Z,16.10
2022-08-19T03:17:21.136Z,17.50
2022-08-19T03:19:48.038Z,14.77
2022-08-19T03:22:15.060Z,18.70
2022-08-19T03:24:41.971Z,17.93
2022-08-19T03:27:08.887Z,14.13
2022-08-19T03:29:43.136Z,16.07
2022-08-19T03:32:24.449Z,16.33
2022-08-19T03:34:58.439Z,20.47
2022-08-19T03:37:26.935Z,20.60
2022-08-19T03:39:53.900Z,19.53
2022-08-19T03:42:32.362Z,19.93
2022-08-19T03:45:08.155Z,21.03
2022-08-19T03:47:35.151Z,20.03
2022-08-19T03:50:02.426Z,15.90
2022-08-19T03:52:29.381Z,18.87
2022-08-19T03:54:56.344Z,19.70
2022-08-19T03:57:24.424Z,16.47
2022-08-19T04:00:03.724Z,14.60
2022-08-19T04:02:39.623Z,18.60
2022-08-19T04:05:09.150Z,16.87
2022-08-19T04:07:36.531Z,15.07
2022-08-19T04:10:05.509Z,15.20
2022-08-19T04:12:32.871Z,18.30
2022-08-19T04:14:59.775Z,15.43
2022-08-19T04:17:26.828Z,16.53
2022-08-19T04:19:53.756Z,14.60
2022-08-19T04:22:20.646Z,19.20
2022-08-19T04:24:47.539Z,16.13
2022-08-19T04:27:15.047Z,16.33
2022-08-19T04:29:42.303Z,17.80
2022-08-19T04:32:11.853Z,17.00
2022-08-19T04:35:02.601Z,19.30
2022-08-19T04:37:35.412Z,20.20
2022-08-19T04:40:22.308Z,16.90
2022-08-19T04:42:49.281Z,14.53
2022-08-19T04:45:17.495Z,14.57
2022-08-19T04:47:49.115Z,14.30
2022-08-19T04:50:26.702Z,13.23
2022-08-19T04:52:54.154Z,12.93
2022-08-19T04:55:21.295Z,12.33
2022-08-19T04:57:48.246Z,12.23
2022-08-19T05:00:15.717Z,14.60
2022-08-19T05:02:42.653Z,9.90
2022-08-19T05:05:10.338Z,12.83
2022-08-19T05:07:37.693Z,10.30
2022-08-19T05:10:06.510Z,13.40
2022-08-19T05:12:33.400Z,16.00
2022-08-19T05:15:01.707Z,15.03
2022-08-19T05:17:33.283Z,13.30
2022-08-19T05:20:24.584Z,15.47
2022-08-19T05:22:51.495Z,13.37
2022-08-19T05:25:21.964Z,14.20
2022-08-19T05:27:49.667Z,13.43
2022-08-19T05:30:17.492Z,15.23
2022-08-19T05:32:44.921Z,15.30
2022-08-19T05:35:12.705Z,29.90
2022-08-19T05:37:41.136Z,16.83
2022-08-19T05:40:10.344Z,16.73
2022-08-19T05:42:38.330Z,16.23
2022-08-19T05:45:05.883Z,16.67
2022-08-19T05:47:33.149Z,13.70
2022-08-19T05:50:00.339Z,15.87
2022-08-19T05:52:29.017Z,14.93
2022-08-19T05:54:57.397Z,17.03
2022-08-19T05:57:25.156Z,21.37
2022-08-19T05:59:58.340Z,14.60
2022-08-19T06:02:31.642Z,18.00
2022-08-19T06:04:59.061Z,18.63
2022-08-19T06:07:26.566Z,21.93
2022-08-19T06:10:00.246Z,17.07
2022-08-19T06:12:32.662Z,20.43
2022-08-19T06:15:06.089Z,18.80
2022-08-19T06:17:35.683Z,21.03
2022-08-19T06:20:14.316Z,20.17
2022-08-19T06:22:44.106Z,20.60
2022-08-19T06:25:12.851Z,23.60
2022-08-19T06:27:58.575Z,24.23
2022-08-19T06:30:26.840Z,23.23
2022-08-19T06:32:53.719Z,23.50
2022-08-19T06:35:20.915Z,20.00
2022-08-19T06:37:48.021Z,23.80
2022-08-19T06:40:15.075Z,23.07
2022-08-19T06:42:52.313Z,22.13
2022-08-19T06:45:24.861Z,19.80
2022-08-19T06:48:01.669Z,25.43
2022-08-19T06:50:28.565Z,19.83
2022-08-19T06:52:55.659Z,31.93
2022-08-19T06:55:22.798Z,20.00
2022-08-19T06:57:54.329Z,22.43
2022-08-19T07:00:21.634Z,24.47
2022-08-19T07:02:53.344Z,20.20
2022-08-19T07:05:25.971Z,31.73
2022-08-19T07:07:52.859Z,23.73
2022-08-19T07:10:20.204Z,19.17
2022-08-19T07:12:47.478Z,23.00
2022-08-19T07:15:14.386Z,22.30
2022-08-19T07:17:42.287Z,19.83
2022-08-19T07:20:10.301Z,18.60
2022-08-19T07:22:40.766Z,23.63
2022-08-19T07:25:09.869Z,18.57
2022-08-19T07:27:38.086Z,17.40
2022-08-19T07:30:11.615Z,20.93
2022-08-19T07:32:39.798Z,21.40
2022-08-19T07:35:07.880Z,18.53
2022-08-19T07:37:37.929Z,22.30
2022-08-19T07:40:07.648Z,21.10
2022-08-19T07:42:34.588Z,19.87
2022-08-19T07:45:01.469Z,20.53
2022-08-19T07:47:48.872Z,18.60
2022-08-19T07:50:17.409Z,17.37
2022-08-19T07:52:47.108Z,15.47
2022-08-19T07:55:41.999Z,16.30
2022-08-19T07:58:05.973Z,20.60
2022-08-19T08:00:33.183Z,16.63
2022-08-19T08:03:00.116Z,18.67
2022-08-19T08:05:45.494Z,14.40
2022-08-19T08:08:33.499Z,16.40
2022-08-19T08:11:01.328Z,21.40
2022-08-19T08:13:28.907Z,27.23
2022-08-19T08:15:57.447Z,18.27
2022-08-19T08:18:30.439Z,19.20
2022-08-19T08:20:59.038Z,20.37
2022-08-19T08:23:27.316Z,20.00
2022-08-19T08:25:58.079Z,21.07
2022-08-19T08:28:29.605Z,18.80
2022-08-19T08:30:58.445Z,18.63
2022-08-19T08:33:34.413Z,20.30
2022-08-19T08:36:09.582Z,21.90
2022-08-19T08:38:41.367Z,27.13
2022-08-19T08:41:29.717Z,14.97
2022-08-19T08:43:58.251Z,19.07
2022-08-19T08:46:46.348Z,16.97
2022-08-19T08:50:19.534Z,18.10
2022-08-19T08:52:52.069Z,23.60
2022-08-19T08:55:24.217Z,14.90
2022-08-19T08:58:07.930Z,18.63
2022-08-19T09:00:41.177Z,19.83
2022-08-19T09:03:23.808Z,31.20
2022-08-19T09:06:03.456Z,19.23
2022-08-19T09:08:56.686Z,16.80
2022-08-19T09:11:49.055Z,19.20
2022-08-19T09:14:51.156Z,23.87
2022-08-19T09:17:34.621Z,18.63
2022-08-19T09:20:26.231Z,19.00
2022-08-19T09:22:53.406Z,18.37
2022-08-19T09:25:26.787Z,21.70
2022-08-19T09:28:02.442Z,19.43
2022-08-19T09:30:35.452Z,22.57
2022-08-19T09:33:02.688Z,20.37
2022-08-19T09:35:31.283Z,22.10
2022-08-19T09:38:00.015Z,24.97
2022-08-19T09:40:35.465Z,24.70
2022-08-19T09:43:10.007Z,26.20
2022-08-19T09:45:39.836Z,21.60
2022-08-19T09:48:07.082Z,26.13
2022-08-19T09:50:35.120Z,23.80
2022-08-19T09:53:02.096Z,28.67
2022-08-19T09:55:31.316Z,23.80
2022-08-19T09:58:01.583Z,22.10
2022-08-19T10:00:28.492Z,24.60
2022-08-19T10:02:55.416Z,24.17
2022-08-19T10:05:42.338Z,25.57
2022-08-19T10:08:13.373Z,24.60
2022-08-19T10:10:46.802Z,28.20
2022-08-19T10:13:27.083Z,22.93
2022-08-19T10:15:58.134Z,24.03
2022-08-19T10:18:26.467Z,26.37
2022-08-19T10:21:11.679Z,27.60
2022-08-19T10:23:42.439Z,27.10
2022-08-19T10:26:09.380Z,22.53
2022-08-19T10:28:40.751Z,29.57
2022-08-19T10:31:18.279Z,19.90
2022-08-19T10:33:53.960Z,21.90
2022-08-19T10:36:23.839Z,21.67
2022-08-19T10:38:56.842Z,17.27
2022-08-19T10:41:28.886Z,22.10
2022-08-19T10:44:04.498Z,25.63
2022-08-19T10:46:33.592Z,20.37
2022-08-19T10:49:02.685Z,22.80
2022-08-19T10:51:49.207Z,20.40
2022-08-19T10:54:17.599Z,25.90
2022-08-19T10:56:58.205Z,25.60
2022-08-19T10:59:33.789Z,26.63
2022-08-19T11:02:06.563Z,24.60
2022-08-19T11:04:34.207Z,23.90
2022-08-19T11:07:02.985Z,18.83
2022-08-19T11:09:34.011Z,22.30
2022-08-19T11:12:02.959Z,21.67
2022-08-19T11:14:34.135Z,23.93
2022-08-19T11:17:02.566Z,17.87
2022-08-19T11:19:29.501Z,17.47
2022-08-19T11:21:57.502Z,17.80
2022-08-19T11:24:26.791Z,20.27
2022-08-19T11:26:59.946Z,19.97
2022-08-19T11:29:28.687Z,14.53
2022-08-19T11:31:55.991Z,17.50
2022-08-19T11:34:26.391Z,13.80
2022-08-19T11:36:58.987Z,19.50
2022-08-19T11:39:28.291Z,17.70
2022-08-19T11:41:55.387Z,17.07
2022-08-19T11:44:22.317Z,17.30
2022-08-19T11:46:49.231Z,16.40
2022-08-19T11:49:19.708Z,15.73
2022-08-19T11:51:47.966Z,15.77
2022-08-19T11:54:17.121Z,17.10
2022-08-19T11:56:46.524Z,14.73
2022-08-19T11:59:15.043Z,17.00
2022-08-19T12:01:43.527Z,17.63
2022-08-19T12:04:11.644Z,20.00
2022-08-19T12:06:41.120Z,16.47
2022-08-19T12:09:10.945Z,15.07
2022-08-19T12:11:39.613Z,17.90
2022-08-19T12:14:07.969Z,15.40
2022-08-19T12:16:36.208Z,14.73
2022-08-19T12:19:06.237Z,16.00
2022-08-19T12:21:36.102Z,14.53
2022-08-19T12:24:05.955Z,13.20
2022-08-19T12:26:33.643Z,17.17
2022-08-19T12:29:23.363Z,15.03
2022-08-19T12:31:51.421Z,15.70
2022-08-19T12:34:18.383Z,13.40
2022-08-19T12:36:45.275Z,16.33
2022-08-19T12:39:12.296Z,21.53
2022-08-19T12:41:43.332Z,21.43
2022-08-19T12:44:19.351Z,16.60
2022-08-19T12:46:47.799Z,14.97
2022-08-19T12:49:52.200Z,23.33
2022-08-19T12:52:09.624Z,19.80
2022-08-19T12:54:38.192Z,18.53
2022-08-19T12:57:09.743Z,17.40
2022-08-19T12:59:37.827Z,17.27
2022-08-19T13:02:07.193Z,22.10
2022-08-19T13:04:37.293Z,15.73
2022-08-19T13:07:05.092Z,16.10
2022-08-19T13:09:31.998Z,16.50
2022-08-19T13:11:58.936Z,17.37
2022-08-19T13:14:27.072Z,15.60
2022-08-19T13:16:54.098Z,17.27
2022-08-19T13:19:24.074Z,16.33
2022-08-19T13:21:51.985Z,15.40
2022-08-19T13:24:29.468Z,18.80
2022-08-19T13:27:03.532Z,16.63
2022-08-19T13:29:49.270Z,18.60
2022-08-19T13:32:34.789Z,14.77
2022-08-19T13:35:04.258Z,16.27
2022-08-19T13:37:49.050Z,19.20
2022-08-19T13:40:20.032Z,17.40
2022-08-19T13:42:49.450Z,19.57
2022-08-19T13:45:23.809Z,17.97
2022-08-19T13:47:57.127Z,15.53
2022-08-19T13:50:29.516Z,15.43
2022-08-19T13:52:57.423Z,18.77
2022-08-19T13:55:25.765Z,17.80
2022-08-19T13:57:59.519Z,16.70
2022-08-19T14:00:30.437Z,17.73
2022-08-19T14:02:58.703Z,17.37
2022-08-19T14:05:28.547Z,17.87
2022-08-19T14:07:56.756Z,16.37
2022-08-19T14:10:24.990Z,16.77
2022-08-19T14:13:02.332Z,15.70
2022-08-19T14:15:30.015Z,15.07
2022-08-19T14:17:57.455Z,15.97
2022-08-19T14:20:25.913Z,17.43
2022-08-19T14:22:54.141Z,16.60
2022-08-19T14:25:26.828Z,17.60
2022-08-19T14:27:54.024Z,21.97
2022-08-19T14:30:29.258Z,14.30
2022-08-19T14:32:59.157Z,14.13
2022-08-19T14:35:28.243Z,13.60
2022-08-19T14:37:56.913Z,13.70
2022-08-19T14:40:28.552Z,13.53
2022-08-19T14:43:04.672Z,15.60
2022-08-19T14:45:35.066Z,15.87
2022-08-19T14:48:05.545Z,14.40
2022-08-19T14:50:33.812Z,17.63
2022-08-19T14:53:11.851Z,13.73
2022-08-19T14:55:43.903Z,14.30
2022-08-19T14:58:28.415Z,15.30
2022-08-19T15:00:58.515Z,14.20
2022-08-19T15:03:26.956Z,15.43
2022-08-19T15:05:54.271Z,14.10
2022-08-19T15:08:25.614Z,15.73
2022-08-19T15:10:53.101Z,13.33
2022-08-19T15:13:20.066Z,16.77
2022-08-19T15:15:48.262Z,17.43
2022-08-19T15:18:15.506Z,14.30
2022-08-19T15:20:44.444Z,14.50
2022-08-19T15:23:18.450Z,16.00
2022-08-19T15:25:45.510Z,15.40
2022-08-19T15:28:12.632Z,16.60
2022-08-19T15:30:41.759Z,16.13
2022-08-19T15:33:09.243Z,18.70
2022-08-19T15:35:36.208Z,18.77
2022-08-19T15:38:03.200Z,16.50
2022-08-19T15:40:30.112Z,23.87
2022-08-19T15:42:58.755Z,15.00
2022-08-19T15:45:32.478Z,18.27
2022-08-19T15:48:01.431Z,15.00
2022-08-19T15:50:29.200Z,17.30
2022-08-19T15:53:03.815Z,16.00
2022-08-19T15:55:36.044Z,20.40
2022-08-19T15:58:29.910Z,17.40
2022-08-19T16:01:23.629Z,17.60
2022-08-19T16:04:14.530Z,12.33
2022-08-19T16:06:49.773Z,13.97
2022-08-19T16:09:22.138Z,19.10
2022-08-19T16:11:56.900Z,11.20
2022-08-19T16:14:25.501Z,15.50
2022-08-19T16:16:54.025Z,15.47
2022-08-19T16:19:20.943Z,16.87
2022-08-19T16:21:52.400Z,14.80
2022-08-19T16:24:27.247Z,16.00
2022-08-19T16:26:54.974Z,26.20
2022-08-19T16:29:33.319Z,16.40
2022-08-19T16:32:05.005Z,16.07
2022-08-19T16:34:32.331Z,19.50
2022-08-19T16:37:00.649Z,19.43
2022-08-19T16:39:27.593Z,24.33
2022-08-19T16:41:54.499Z,16.90
2022-08-19T16:44:21.966Z,19.80
2022-08-19T16:46:58.945Z,16.93
2022-08-19T16:49:53.438Z,20.73
2022-08-19T16:52:16.891Z,19.00
2022-08-19T16:54:44.069Z,16.87
2022-08-19T16:57:12.930Z,17.83
2022-08-19T16:59:43.765Z,19.33
2022-08-19T17:02:23.179Z,14.47
2022-08-19T17:04:57.792Z,26.93
2022-08-19T17:07:27.942Z,18.83
2022-08-19T17:09:55.822Z,14.40
2022-08-19T17:12:30.475Z,14.47
2022-08-19T17:15:05.131Z,19.20
2022-08-19T17:17:32.453Z,13.47
2022-08-19T17:20:01.182Z,15.57
2022-08-19T17:22:28.824Z,14.63
2022-08-19T17:24:56.318Z,12.93
2022-08-19T17:27:25.928Z,13.20
2022-08-19T17:29:52.975Z,13.40
2022-08-19T17:32:25.226Z,16.43
2022-08-19T17:34:54.087Z,12.67
2022-08-19T17:37:21.680Z,15.43
2022-08-19T17:39:48.957Z,14.20
2022-08-19T17:42:15.887Z,14.50
2022-08-19T17:44:42.897Z,15.60
2022-08-19T17:47:13.871Z,18.67
2022-08-19T17:49:40.880Z,16.27
2022-08-19T17:52:10.054Z,13.87
2022-08-19T17:54:37.347Z,16.40
2022-08-19T17:57:04.470Z,18.30
2022-08-19T17:59:31.363Z,15.90
2022-08-19T18:01:59.964Z,14.20
2022-08-19T18:04:27.468Z,13.97
2022-08-19T18:06:55.799Z,15.57
2022-08-19T18:09:28.697Z,12.27
2022-08-19T18:12:11.289Z,15.70
2022-08-19T18:14:39.247Z,17.37
2022-08-19T18:17:10.774Z,14.17
2022-08-19T18:19:42.061Z,20.63
2022-08-19T18:22:23.831Z,17.97
2022-08-19T18:24:51.379Z,16.23
2022-08-19T18:27:18.326Z,13.73
2022-08-19T18:29:45.490Z,13.70
2022-08-19T18:32:12.907Z,17.87
2022-08-19T18:34:44.429Z,15.13
2022-08-19T18:37:11.975Z,16.70
2022-08-19T18:39:57.473Z,14.73
2022-08-19T18:42:43.372Z,14.97
2022-08-19T18:45:29.902Z,13.43
2022-08-19T18:48:26.961Z,15.07
2022-08-19T18:51:00.187Z,15.20
2022-08-19T18:53:33.813Z,18.23
2022-08-19T18:56:00.900Z,14.30
2022-08-19T18:58:34.681Z,16.17
2022-08-19T19:01:17.299Z,14.77
2022-08-19T19:03:52.882Z,23.50
2022-08-19T19:06:24.943Z,15.80
2022-08-19T19:08:53.310Z,18.63
2022-08-19T19:11:29.723Z,16.43
2022-08-19T19:13:57.151Z,15.93
2022-08-19T19:16:24.755Z,18.47
2022-08-19T19:18:52.789Z,15.10
2022-08-19T19:21:25.335Z,19.43
2022-08-19T19:23:54.563Z,18.27
2022-08-19T19:26:21.780Z,15.60
2022-08-19T19:28:49.205Z,25.73
2022-08-19T19:31:26.685Z,16.83
2022-08-19T19:33:55.934Z,19.33
2022-08-19T19:36:23.668Z,14.30
2022-08-19T19:38:50.662Z,15.70
2022-08-19T19:41:25.830Z,15.27
2022-08-19T19:44:23.187Z,23.47
2022-08-19T19:46:43.037Z,16.10
2022-08-19T19:49:11.310Z,15.20
2022-08-19T19:51:39.410Z,15.53
2022-08-19T19:54:15.040Z,16.93
2022-08-19T19:56:46.018Z,16.33
2022-08-19T19:59:13.022Z,13.40
2022-08-19T20:01:44.297Z,13.13
2022-08-19T20:04:12.585Z,16.87
2022-08-19T20:06:39.677Z,16.83
2022-08-19T20:09:10.524Z,18.73
2022-08-19T20:11:53.503Z,15.30
2022-08-19T20:14:26.193Z,15.40
2022-08-19T20:16:55.651Z,18.10
2022-08-19T20:19:26.954Z,15.50
2022-08-19T20:21:55.815Z,13.43
2022-08-19T20:24:28.335Z,12.93
2022-08-19T20:26:55.389Z,14.03
2022-08-19T20:29:38.796Z,14.57
2022-08-19T20:32:10.194Z,13.50
2022-08-19T20:34:37.285Z,13.70
2022-08-19T20:37:04.675Z,14.60
2022-08-19T20:39:31.693Z,14.63
2022-08-19T20:41:58.649Z,14.03
2022-08-19T20:44:25.755Z,17.80
2022-08-19T20:46:55.477Z,14.90
2022-08-19T20:49:27.009Z,14.90
2022-08-19T20:51:55.886Z,18.90
2022-08-19T20:54:24.160Z,17.77
2022-08-19T20:56:51.676Z,25.47
2022-08-19T20:59:20.420Z,18.43
2022-08-19T21:01:47.955Z,18.57
2022-08-19T21:04:15.202Z,18.57
2022-08-19T21:06:45.515Z,18.03
2022-08-19T21:09:13.699Z,24.20
2022-08-19T21:11:40.833Z,18.77
2022-08-19T21:14:07.827Z,20.00
2022-08-19T21:16:34.787Z,17.03
2022-08-19T21:19:01.721Z,19.93
2022-08-19T21:21:28.878Z,18.40
2022-08-19T21:23:55.991Z,17.67
2022-08-19T21:26:24.285Z,16.93
2022-08-19T21:28:51.217Z,16.00
2022-08-19T21:31:18.148Z,16.73
2022-08-19T21:33:45.619Z,16.30
2022-08-19T21:36:12.544Z,17.37
2022-08-19T21:38:39.481Z,24.70
2022-08-19T21:41:06.947Z,14.80
2022-08-19T21:43:36.192Z,15.37
2022-08-19T21:46:04.098Z,16.60
2022-08-19T21:48:31.009Z,14.40
2022-08-19T21:50:57.913Z,25.07
2022-08-19T21:53:24.906Z,16.00
2022-08-19T21:55:58.619Z,17.40
2022-08-19T21:58:29.268Z,16.70
2022-08-19T22:01:06.247Z,20.50
2022-08-19T22:03:35.419Z,17.00
2022-08-19T22:06:02.777Z,19.30
2022-08-19T22:08:29.798Z,19.40
2022-08-19T22:10:59.119Z,20.20
2022-08-19T22:13:26.776Z,25.00
2022-08-19T22:15:55.128Z,16.80
2022-08-19T22:18:22.067Z,17.63
2022-08-19T22:20:49.019Z,16.47
2022-08-19T22:23:16.141Z,16.10
2022-08-19T22:25:47.239Z,17.70
2022-08-19T22:28:19.106Z,17.23
2022-08-19T22:30:54.965Z,16.17
2022-08-19T22:33:22.532Z,14.23
2022-08-19T22:35:51.608Z,14.90
2022-08-19T22:38:19.341Z,15.63
2022-08-19T22:40:49.103Z,14.83
2022-08-19T22:43:20.653Z,16.20
2022-08-19T22:45:49.456Z,16.43
2022-08-19T22:48:21.373Z,17.43
2022-08-19T22:51:08.415Z,16.50
2022-08-19T22:53:41.355Z,16.90
2022-08-19T22:56:14.986Z,19.43
2022-08-19T22:58:42.616Z,19.90
2022-08-19T23:01:14.630Z,20.13
2022-08-19T23:03:50.146Z,21.00
2022-08-19T23:06:17.400Z,23.30
2022-08-19T23:08:44.606Z,23.70
2022-08-19T23:11:11.903Z,24.30
2022-08-19T23:13:40.781Z,22.97
2022-08-19T23:16:08.116Z,24.70
2022-08-19T23:18:35.143Z,27.13
2022-08-19T23:21:02.052Z,25.93
2022-08-19T23:23:29.089Z,28.03
2022-08-19T23:25:57.146Z,29.50
2022-08-19T23:28:42.926Z,29.50
2022-08-19T23:31:11.274Z,29.73
2022-08-19T23:33:51.898Z,31.70
2022-08-19T23:36:20.424Z,27.90
2022-08-19T23:38:49.385Z,30.27
2022-08-19T23:41:18.597Z,31.77
2022-08-19T23:43:46.503Z,27.30
2022-08-19T23:46:27.503Z,30.03
2022-08-19T23:48:56.262Z,34.37
2022-08-19T23:51:23.239Z,31.73
2022-08-19T23:53:50.423Z,29.40
2022-08-19T23:56:17.330Z,30.30
2022-08-19T23:58:44.252Z,33.50
